Ruskin, NE (68974)

06:16 PM CDT die 28o August, anno 2014 (GMT -0500)
North Superior | Change Station
CLOSE
Current Station
Personal Weather Stations
Location: Superior, NE
Elevation: 1617 ft
Nearby Weather Stations

Elev 1617 ft 40.03 °N, 98.07 °W | Updated 4 seconds ago

Partialiter Nubila
Partialiter Nubila
80.3 °F
Feels Like 83 °F
N
1.0
Ventus Variabilis Ventus from Magis Auster quam Eurus
Gusts 16.0 mph

Hodie
High -- | Low -- °F
--% Chance of Precip.
Yesterday
High -- | Low -- °F
Precip. -- in
6:55 AM 8:09 PM
Waxing Crescent, 10% visible
Pressio 29.84 in
Visibilitas 10.0 milia passuum
Clouds Serena
Index Caloris 83 °F
Frigus in quo Ros apparet 68 °F
Umor 66%
Rainfall 0.70 in
Snow Depth Not available.
UV 2 out of 12
Pollen 2.70 out of 12
Air Quality Not available.
Flu Activity Not available.
METAR KHJH 282255Z AUTO 20011G20KT 10SM CLR 27/18 A2984 RMK AO2 T02670181

More Conditions Fewer Conditions

Pressio 29.84 in
Visibilitas 10.0 milia passuum
Clouds Serena
Index Caloris 83 °F
Frigus in quo Ros apparet 68 °F
Umor 66%
Rainfall 0.70 in
Snow Depth Not available.
UV 2 out of 12
Pollen 2.70 out of 12
Air Quality Not available.
Flu Activity Not available.
METAR KHJH 282255Z AUTO 20011G20KT 10SM CLR 27/18 A2984 RMK AO2 T02670181

More Conditions Fewer Conditions

10-Day Weather Forecast

Almanac

Astronomy

Aug. 28, 2014 Rise Set
Actual Time 6:55 AM CDT 8:09 PM CDT
Civil Twilight 6:27 AM CDT 8:37 PM CDT
Nautical Twilight 5:53 AM CDT 9:10 PM CDT
Astronomical Twilight 5:18 AM CDT 9:45 PM CDT
Moon 9:49 AM CDT 9:33 PM CDT
Length Of Visible Light 14h 10m
Length of Day
13h 13m
Tomorrow will be 2m 30s shorter.
Waxing Crescent, 10% of the Moon is Illuminated
Hodie
Waxing Crescent
Sep 2
First Quarter
Sep 8
Full
Sep 15
Last Quarter
Sep 24
New

Today's Extremes

State Highs State Lows

Community

WunderPhotos

Upload Photos

1,748,102 photos uploaded!

Nearby

Snow Depth

Station Depth Elevation
No new snow has been reported.

Earthquake Activity

City Distance Mag. Time & Date
No recent earthquake activity has been reported nearby.
Minimum magnitude displayed is 2.5.

Coastal Water Temperatures

Locus Calor
No Stations Reporting

Nearby Weather Stations